sensor_id;sensor_type;location;lat;lon;timestamp;temperature;humidity
28297;DHT22;62078;49.366;8.172;2022-09-11T08:09:46;21.60;65.90
28297;DHT22;62078;49.366;8.172;2022-09-11T08:12:12;21.70;65.40
28297;DHT22;62078;49.366;8.172;2022-09-11T08:14:37;21.80;64.90
28297;DHT22;62078;49.366;8.172;2022-09-11T08:17:03;21.70;64.60
28297;DHT22;62078;49.366;8.172;2022-09-11T08:19:29;21.70;64.80
28297;DHT22;62078;49.366;8.172;2022-09-11T08:21:54;21.70;64.90
28297;DHT22;62078;49.366;8.172;2022-09-11T08:24:20;21.70;65.20
28297;DHT22;62078;49.366;8.172;2022-09-11T08:26:46;21.60;65.40
28297;DHT22;62078;49.366;8.172;2022-09-11T08:29:12;21.70;65.60
28297;DHT22;62078;49.366;8.172;2022-09-11T08:31:38;21.60;65.30
28297;DHT22;62078;49.366;8.172;2022-09-11T08:34:04;21.60;65.40
28297;DHT22;62078;49.366;8.172;2022-09-11T08:36:38;21.50;65.40
28297;DHT22;62078;49.366;8.172;2022-09-11T08:39:04;21.50;65.50
28297;DHT22;62078;49.366;8.172;2022-09-11T08:44:28;21.50;65.70
28297;DHT22;62078;49.366;8.172;2022-09-11T08:47:08;21.50;65.50
28297;DHT22;62078;49.366;8.172;2022-09-11T08:49:39;21.60;65.30
28297;DHT22;62078;49.366;8.172;2022-09-11T08:52:10;21.60;65.20
28297;DHT22;62078;49.366;8.172;2022-09-11T08:54:39;21.70;65.70
28297;DHT22;62078;49.366;8.172;2022-09-11T08:57:42;21.70;65.60
28297;DHT22;62078;49.366;8.172;2022-09-11T09:17:35;22.00;64.30
28297;DHT22;62078;49.366;8.172;2022-09-11T09:19:48;22.10;63.60
28297;DHT22;62078;49.366;8.172;2022-09-11T09:22:30;22.10;63.40
28297;DHT22;62078;49.366;8.172;2022-09-11T09:25:02;22.20;62.70
28297;DHT22;62078;49.366;8.172;2022-09-11T09:27:33;22.20;62.70
28297;DHT22;62078;49.366;8.172;2022-09-11T09:30:04;22.30;62.40
28297;DHT22;62078;49.366;8.172;2022-09-11T09:32:38;22.30;62.30
28297;DHT22;62078;49.366;8.172;2022-09-11T09:35:14;22.40;62.00
28297;DHT22;62078;49.366;8.172;2022-09-11T09:37:41;22.40;61.50
28297;DHT22;62078;49.366;8.172;2022-09-11T09:40:08;22.40;61.50
28297;DHT22;62078;49.366;8.172;2022-09-11T09:43:03;22.40;61.90
28297;DHT22;62078;49.366;8.172;2022-09-11T09:46:14;22.40;61.60
28297;DHT22;62078;49.366;8.172;2022-09-11T09:48:42;22.30;61.30
28297;DHT22;62078;49.366;8.172;2022-09-11T09:51:12;22.30;61.40
28297;DHT22;62078;49.366;8.172;2022-09-11T09:53:42;22.30;61.80
28297;DHT22;62078;49.366;8.172;2022-09-11T09:56:13;22.30;61.40
28297;DHT22;62078;49.366;8.172;2022-09-11T09:59:02;22.40;61.10
28297;DHT22;62078;49.366;8.172;2022-09-11T10:01:48;22.40;60.90
28297;DHT22;62078;49.366;8.172;2022-09-11T10:06:41;22.50;60.60
28297;DHT22;62078;49.366;8.172;2022-09-11T10:09:23;22.50;60.50
28297;DHT22;62078;49.366;8.172;2022-09-11T10:12:06;22.50;60.50
28297;DHT22;62078;49.366;8.172;2022-09-11T10:14:43;22.60;60.40
28297;DHT22;62078;49.366;8.172;2022-09-11T10:20:20;22.50;60.50
28297;DHT22;62078;49.366;8.172;2022-09-11T10:22:47;22.60;60.30
28297;DHT22;62078;49.366;8.172;2022-09-11T10:27:58;22.60;60.10
28297;DHT22;62078;49.366;8.172;2022-09-11T10:30:30;22.60;59.90
28297;DHT22;62078;49.366;8.172;2022-09-11T10:32:57;22.60;59.90
28297;DHT22;62078;49.366;8.172;2022-09-11T10:35:25;22.60;59.90
28297;DHT22;62078;49.366;8.172;2022-09-11T10:40:25;22.60;59.80
28297;DHT22;62078;49.366;8.172;2022-09-11T10:42:51;22.60;59.70
28297;DHT22;62078;49.366;8.172;2022-09-11T10:45:20;22.60;59.50
28297;DHT22;62078;49.366;8.172;2022-09-11T10:47:47;22.60;59.50
28297;DHT22;62078;49.366;8.172;2022-09-11T10:55:35;22.50;59.20
28297;DHT22;62078;49.366;8.172;2022-09-11T10:58:11;22.50;59.20
28297;DHT22;62078;49.366;8.172;2022-09-11T11:00:37;22.60;59.20
28297;DHT22;62078;49.366;8.172;2022-09-11T11:03:18;22.50;59.00
28297;DHT22;62078;49.366;8.172;2022-09-11T11:11:53;22.60;59.10
28297;DHT22;62078;49.366;8.172;2022-09-11T11:17:30;22.50;58.90
28297;DHT22;62078;49.366;8.172;2022-09-11T11:20:31;22.50;58.90
28297;DHT22;62078;49.366;8.172;2022-09-11T11:23:19;22.50;58.80
28297;DHT22;62078;49.366;8.172;2022-09-11T11:28:32;22.50;58.90
28297;DHT22;62078;49.366;8.172;2022-09-11T11:36:32;22.50;58.90
28297;DHT22;62078;49.366;8.172;2022-09-11T11:39:24;22.50;58.80
28297;DHT22;62078;49.366;8.172;2022-09-11T11:42:13;22.50;59.00
28297;DHT22;62078;49.366;8.172;2022-09-11T11:44:49;22.50;58.90
28297;DHT22;62078;49.366;8.172;2022-09-11T11:47:17;22.50;58.70
28297;DHT22;62078;49.366;8.172;2022-09-11T11:57:48;22.50;58.60
28297;DHT22;62078;49.366;8.172;2022-09-11T12:00:18;22.50;58.50
28297;DHT22;62078;49.366;8.172;2022-09-11T12:03:00;22.50;58.60
28297;DHT22;62078;49.366;8.172;2022-09-11T12:05:31;22.50;58.60
28297;DHT22;62078;49.366;8.172;2022-09-11T12:07:57;22.50;58.50
28297;DHT22;62078;49.366;8.172;2022-09-11T12:10:33;22.50;58.60
28297;DHT22;62078;49.366;8.172;2022-09-11T12:13:15;22.50;58.60
28297;DHT22;62078;49.366;8.172;2022-09-11T12:16:06;22.50;58.50
28297;DHT22;62078;49.366;8.172;2022-09-11T12:18:34;22.50;58.50
28297;DHT22;62078;49.366;8.172;2022-09-11T12:28:48;22.50;58.60
28297;DHT22;62078;49.366;8.172;2022-09-11T12:31:15;22.50;58.70
28297;DHT22;62078;49.366;8.172;2022-09-11T12:36:17;22.50;58.50
28297;DHT22;62078;49.366;8.172;2022-09-11T12:41:29;22.50;58.70
28297;DHT22;62078;49.366;8.172;2022-09-11T12:43:56;22.60;58.60
28297;DHT22;62078;49.366;8.172;2022-09-11T12:51:36;22.50;58.60
28297;DHT22;62078;49.366;8.172;2022-09-11T12:54:17;22.60;58.60
28297;DHT22;62078;49.366;8.172;2022-09-11T12:56:46;22.60;58.60
28297;DHT22;62078;49.366;8.172;2022-09-11T12:59:27;22.50;58.50
28297;DHT22;62078;49.366;8.172;2022-09-11T13:01:55;22.60;58.60
28297;DHT22;62078;49.366;8.172;2022-09-11T13:04:24;22.60;58.50
28297;DHT22;62078;49.366;8.172;2022-09-11T13:06:59;22.60;58.40
28297;DHT22;62078;49.366;8.172;2022-09-11T13:09:38;22.60;58.40
28297;DHT22;62078;49.366;8.172;2022-09-11T13:14:56;22.60;58.40
28297;DHT22;62078;49.366;8.172;2022-09-11T13:17:33;22.60;58.40
28297;DHT22;62078;49.366;8.172;2022-09-11T13:20:19;22.60;58.30
28297;DHT22;62078;49.366;8.172;2022-09-11T13:22:45;22.60;58.30
28297;DHT22;62078;49.366;8.172;2022-09-11T13:25:16;22.60;58.30
28297;DHT22;62078;49.366;8.172;2022-09-11T13:27:47;22.60;58.40
28297;DHT22;62078;49.366;8.172;2022-09-11T13:30:16;22.60;58.30
28297;DHT22;62078;49.366;8.172;2022-09-11T13:32:44;22.60;58.30
28297;DHT22;62078;49.366;8.172;2022-09-11T13:35:20;22.60;58.40
28297;DHT22;62078;49.366;8.172;2022-09-11T13:37:59;22.60;58.40
28297;DHT22;62078;49.366;8.172;2022-09-11T13:40:43;22.60;58.30
28297;DHT22;62078;49.366;8.172;2022-09-11T13:43:16;22.60;58.20
28297;DHT22;62078;49.366;8.172;2022-09-11T13:45:43;22.60;58.30
28297;DHT22;62078;49.366;8.172;2022-09-11T13:48:22;22.60;58.40
28297;DHT22;62078;49.366;8.172;2022-09-11T13:50:49;22.60;58.40
28297;DHT22;62078;49.366;8.172;2022-09-11T13:53:17;22.60;58.30
28297;DHT22;62078;49.366;8.172;2022-09-11T13:55:48;22.60;58.40
28297;DHT22;62078;49.366;8.172;2022-09-11T13:58:27;22.60;58.40
28297;DHT22;62078;49.366;8.172;2022-09-11T14:00:56;22.60;58.50
28297;DHT22;62078;49.366;8.172;2022-09-11T14:03:33;22.60;58.50
28297;DHT22;62078;49.366;8.172;2022-09-11T14:06:01;22.50;58.40
28297;DHT22;62078;49.366;8.172;2022-09-11T14:08:32;22.60;58.40
28297;DHT22;62078;49.366;8.172;2022-09-11T14:11:03;22.60;58.50
28297;DHT22;62078;49.366;8.172;2022-09-11T14:21:42;22.60;58.30
28297;DHT22;62078;49.366;8.172;2022-09-11T14:24:27;22.60;58.30
28297;DHT22;62078;49.366;8.172;2022-09-11T14:26:54;22.60;58.40
28297;DHT22;62078;49.366;8.172;2022-09-11T14:29:26;22.60;58.40
28297;DHT22;62078;49.366;8.172;2022-09-11T14:34:59;22.60;58.00
28297;DHT22;62078;49.366;8.172;2022-09-11T14:37:27;22.60;57.70
28297;DHT22;62078;49.366;8.172;2022-09-11T14:39:57;22.60;57.60
28297;DHT22;62078;49.366;8.172;2022-09-11T14:42:32;22.60;57.70
28297;DHT22;62078;49.366;8.172;2022-09-11T14:44:58;22.60;57.80
28297;DHT22;62078;49.366;8.172;2022-09-11T14:47:25;22.50;57.30
28297;DHT22;62078;49.366;8.172;2022-09-11T14:49:54;22.50;57.30
28297;DHT22;62078;49.366;8.172;2022-09-11T14:52:25;22.50;57.50
28297;DHT22;62078;49.366;8.172;2022-09-11T14:54:51;22.50;57.70
28297;DHT22;62078;49.366;8.172;2022-09-11T14:57:22;22.50;57.40
28297;DHT22;62078;49.366;8.172;2022-09-11T14:59:49;22.50;57.50
28297;DHT22;62078;49.366;8.172;2022-09-11T15:02:22;22.50;57.70
28297;DHT22;62078;49.366;8.172;2022-09-11T15:04:49;22.50;57.60
28297;DHT22;62078;49.366;8.172;2022-09-11T15:07:16;22.50;57.50
28297;DHT22;62078;49.366;8.172;2022-09-11T15:09:43;22.50;57.90
28297;DHT22;62078;49.366;8.172;2022-09-11T15:12:10;22.50;57.90
28297;DHT22;62078;49.366;8.172;2022-09-11T15:14:38;22.50;58.20
28297;DHT22;62078;49.366;8.172;2022-09-11T15:17:07;22.50;58.50
28297;DHT22;62078;49.366;8.172;2022-09-11T15:19:33;22.50;58.50
28297;DHT22;62078;49.366;8.172;2022-09-11T15:21:59;22.50;58.70
28297;DHT22;62078;49.366;8.172;2022-09-11T15:24:26;22.50;58.70
28297;DHT22;62078;49.366;8.172;2022-09-11T15:26:52;22.50;58.60
28297;DHT22;62078;49.366;8.172;2022-09-11T15:29:19;22.50;58.70
28297;DHT22;62078;49.366;8.172;2022-09-11T15:31:46;22.50;58.90
28297;DHT22;62078;49.366;8.172;2022-09-11T15:34:13;22.50;58.60
28297;DHT22;62078;49.366;8.172;2022-09-11T15:36:39;22.50;58.60
28297;DHT22;62078;49.366;8.172;2022-09-11T15:39:09;22.50;58.30
28297;DHT22;62078;49.366;8.172;2022-09-11T15:41:35;22.50;58.40
28297;DHT22;62078;49.366;8.172;2022-09-11T15:44:05;22.50;58.00
28297;DHT22;62078;49.366;8.172;2022-09-11T15:46:33;22.50;58.10
28297;DHT22;62078;49.366;8.172;2022-09-11T15:48:59;22.50;57.80
28297;DHT22;62078;49.366;8.172;2022-09-11T15:51:26;22.50;57.90
28297;DHT22;62078;49.366;8.172;2022-09-11T15:53:52;22.50;57.90
28297;DHT22;62078;49.366;8.172;2022-09-11T15:56:19;22.50;57.80
28297;DHT22;62078;49.366;8.172;2022-09-11T15:58:46;22.50;57.80
28297;DHT22;62078;49.366;8.172;2022-09-11T16:01:23;22.60;57.80
28297;DHT22;62078;49.366;8.172;2022-09-11T16:04:00;22.60;57.90
28297;DHT22;62078;49.366;8.172;2022-09-11T16:06:29;22.60;58.10
28297;DHT22;62078;49.366;8.172;2022-09-11T16:08:59;22.60;58.10
28297;DHT22;62078;49.366;8.172;2022-09-11T16:11:27;22.60;58.20
28297;DHT22;62078;49.366;8.172;2022-09-11T16:13:53;22.60;58.10
28297;DHT22;62078;49.366;8.172;2022-09-11T16:16:19;22.60;58.10
28297;DHT22;62078;49.366;8.172;2022-09-11T16:18:45;22.60;58.10
28297;DHT22;62078;49.366;8.172;2022-09-11T16:21:13;22.60;58.10
28297;DHT22;62078;49.366;8.172;2022-09-11T16:23:39;22.60;58.20
28297;DHT22;62078;49.366;8.172;2022-09-11T16:26:11;22.60;58.10
28297;DHT22;62078;49.366;8.172;2022-09-11T16:28:39;22.60;57.70
28297;DHT22;62078;49.366;8.172;2022-09-11T16:31:06;22.60;57.80
28297;DHT22;62078;49.366;8.172;2022-09-11T16:33:35;22.60;57.80
28297;DHT22;62078;49.366;8.172;2022-09-11T16:36:06;22.60;57.90
28297;DHT22;62078;49.366;8.172;2022-09-11T16:38:35;22.60;57.80
28297;DHT22;62078;49.366;8.172;2022-09-11T16:41:09;22.60;57.40
28297;DHT22;62078;49.366;8.172;2022-09-11T16:43:39;22.60;56.90
28297;DHT22;62078;49.366;8.172;2022-09-11T16:46:06;22.60;57.10
28297;DHT22;62078;49.366;8.172;2022-09-11T16:48:33;22.60;57.20
28297;DHT22;62078;49.366;8.172;2022-09-11T16:50:59;22.60;57.00
28297;DHT22;62078;49.366;8.172;2022-09-11T16:53:28;22.60;57.10
28297;DHT22;62078;49.366;8.172;2022-09-11T16:55:54;22.60;57.00
28297;DHT22;62078;49.366;8.172;2022-09-11T16:58:21;22.60;57.20
28297;DHT22;62078;49.366;8.172;2022-09-11T17:00:47;22.60;57.10
28297;DHT22;62078;49.366;8.172;2022-09-11T17:03:13;22.60;57.10
28297;DHT22;62078;49.366;8.172;2022-09-11T17:05:51;22.50;56.90
28297;DHT22;62078;49.366;8.172;2022-09-11T17:08:18;22.50;57.20
28297;DHT22;62078;49.366;8.172;2022-09-11T17:10:48;22.60;57.30
28297;DHT22;62078;49.366;8.172;2022-09-11T17:13:14;22.50;57.20
28297;DHT22;62078;49.366;8.172;2022-09-11T17:15:41;22.50;57.30
28297;DHT22;62078;49.366;8.172;2022-09-11T17:18:10;22.50;57.30
28297;DHT22;62078;49.366;8.172;2022-09-11T17:20:36;22.50;57.90
28297;DHT22;62078;49.366;8.172;2022-09-11T17:23:02;22.50;58.20
28297;DHT22;62078;49.366;8.172;2022-09-11T17:25:28;22.40;58.70
28297;DHT22;62078;49.366;8.172;2022-09-11T17:27:54;22.40;59.10
28297;DHT22;62078;49.366;8.172;2022-09-11T17:30:20;22.40;59.50
28297;DHT22;62078;49.366;8.172;2022-09-11T17:32:46;22.30;60.00
28297;DHT22;62078;49.366;8.172;2022-09-11T17:35:13;22.30;60.70
28297;DHT22;62078;49.366;8.172;2022-09-11T17:37:40;22.20;61.20
28297;DHT22;62078;49.366;8.172;2022-09-11T17:40:07;22.20;61.80
28297;DHT22;62078;49.366;8.172;2022-09-11T17:42:33;22.10;62.50
28297;DHT22;62078;49.366;8.172;2022-09-11T17:45:00;22.10;63.20
28297;DHT22;62078;49.366;8.172;2022-09-11T17:47:31;22.10;63.60
28297;DHT22;62078;49.366;8.172;2022-09-11T17:49:57;22.00;64.00
28297;DHT22;62078;49.366;8.172;2022-09-11T17:52:26;22.00;64.40
28297;DHT22;62078;49.366;8.172;2022-09-11T17:54:52;21.90;64.70
28297;DHT22;62078;49.366;8.172;2022-09-11T17:57:18;21.90;64.90
28297;DHT22;62078;49.366;8.172;2022-09-11T17:59:45;21.80;64.90
28297;DHT22;62078;49.366;8.172;2022-09-11T18:02:12;21.80;65.20
28297;DHT22;62078;49.366;8.172;2022-09-11T18:04:39;21.80;65.60
28297;DHT22;62078;49.366;8.172;2022-09-11T18:07:05;21.70;66.10
28297;DHT22;62078;49.366;8.172;2022-09-11T18:09:31;21.60;66.50
28297;DHT22;62078;49.366;8.172;2022-09-11T18:11:56;21.50;66.50
28297;DHT22;62078;49.366;8.172;2022-09-11T18:14:22;21.50;66.60
28297;DHT22;62078;49.366;8.172;2022-09-11T18:16:48;21.50;66.80
28297;DHT22;62078;49.366;8.172;2022-09-11T18:19:16;21.60;66.70
28297;DHT22;62078;49.366;8.172;2022-09-11T18:21:44;21.80;65.90
28297;DHT22;62078;49.366;8.172;2022-09-11T18:24:10;21.90;65.00
28297;DHT22;62078;49.366;8.172;2022-09-11T18:26:36;22.00;64.40
28297;DHT22;62078;49.366;8.172;2022-09-11T18:29:12;22.00;63.90
28297;DHT22;62078;49.366;8.172;2022-09-11T18:31:42;22.10;63.40
28297;DHT22;62078;49.366;8.172;2022-09-11T18:34:10;22.20;63.30
28297;DHT22;62078;49.366;8.172;2022-09-11T18:36:37;22.20;63.30
28297;DHT22;62078;49.366;8.172;2022-09-11T18:39:04;22.20;63.00
28297;DHT22;62078;49.366;8.172;2022-09-11T18:41:31;22.20;62.90
28297;DHT22;62078;49.366;8.172;2022-09-11T18:44:00;22.30;62.80
28297;DHT22;62078;49.366;8.172;2022-09-11T18:46:26;22.30;62.60
28297;DHT22;62078;49.366;8.172;2022-09-11T18:48:52;22.30;62.40
28297;DHT22;62078;49.366;8.172;2022-09-11T18:51:20;22.30;62.20
28297;DHT22;62078;49.366;8.172;2022-09-11T18:53:47;22.30;62.20
28297;DHT22;62078;49.366;8.172;2022-09-11T18:56:14;22.30;61.90
28297;DHT22;62078;49.366;8.172;2022-09-11T18:58:40;22.30;62.20
28297;DHT22;62078;49.366;8.172;2022-09-11T19:01:11;22.30;62.30
28297;DHT22;62078;49.366;8.172;2022-09-11T19:03:37;22.30;62.30
28297;DHT22;62078;49.366;8.172;2022-09-11T19:06:12;22.30;61.80
28297;DHT22;62078;49.366;8.172;2022-09-11T19:08:40;22.30;61.60
28297;DHT22;62078;49.366;8.172;2022-09-11T19:11:08;22.30;61.50
28297;DHT22;62078;49.366;8.172;2022-09-11T19:13:35;22.30;61.40
28297;DHT22;62078;49.366;8.172;2022-09-11T19:16:01;22.30;61.40
28297;DHT22;62078;49.366;8.172;2022-09-11T19:18:28;22.30;61.40
28297;DHT22;62078;49.366;8.172;2022-09-11T19:20:59;22.30;61.30
28297;DHT22;62078;49.366;8.172;2022-09-11T19:23:31;22.30;61.20
28297;DHT22;62078;49.366;8.172;2022-09-11T19:26:07;22.30;61.20
28297;DHT22;62078;49.366;8.172;2022-09-11T19:28:34;22.30;61.10
28297;DHT22;62078;49.366;8.172;2022-09-11T19:31:01;22.30;61.10
28297;DHT22;62078;49.366;8.172;2022-09-11T19:33:34;22.30;61.10
28297;DHT22;62078;49.366;8.172;2022-09-11T19:36:03;22.30;61.10
28297;DHT22;62078;49.366;8.172;2022-09-11T19:38:30;22.30;61.10
28297;DHT22;62078;49.366;8.172;2022-09-11T19:40:57;22.30;61.10
28297;DHT22;62078;49.366;8.172;2022-09-11T19:43:23;22.30;61.10
28297;DHT22;62078;49.366;8.172;2022-09-11T19:46:00;22.30;61.10
28297;DHT22;62078;49.366;8.172;2022-09-11T19:48:27;22.30;61.00
28297;DHT22;62078;49.366;8.172;2022-09-11T19:50:53;22.30;61.40
28297;DHT22;62078;49.366;8.172;2022-09-11T19:53:18;22.30;61.10
28297;DHT22;62078;49.366;8.172;2022-09-11T19:55:45;22.30;61.10
28297;DHT22;62078;49.366;8.172;2022-09-11T19:58:10;22.30;61.00
28297;DHT22;62078;49.366;8.172;2022-09-11T20:00:36;22.30;61.00
28297;DHT22;62078;49.366;8.172;2022-09-11T20:03:05;22.30;61.10
28297;DHT22;62078;49.366;8.172;2022-09-11T20:05:30;22.30;61.00
28297;DHT22;62078;49.366;8.172;2022-09-11T20:07:56;22.30;60.80
28297;DHT22;62078;49.366;8.172;2022-09-11T20:10:22;22.30;60.70
28297;DHT22;62078;49.366;8.172;2022-09-11T20:12:48;22.30;60.70
28297;DHT22;62078;49.366;8.172;2022-09-11T20:15:14;22.30;60.70
28297;DHT22;62078;49.366;8.172;2022-09-11T20:17:40;22.30;60.60
28297;DHT22;62078;49.366;8.172;2022-09-11T20:20:09;22.30;60.60
28297;DHT22;62078;49.366;8.172;2022-09-11T20:22:35;22.30;60.60
28297;DHT22;62078;49.366;8.172;2022-09-11T20:25:01;22.30;60.50
28297;DHT22;62078;49.366;8.172;2022-09-11T20:27:26;22.30;60.60
28297;DHT22;62078;49.366;8.172;2022-09-11T20:29:53;22.30;60.50
28297;DHT22;62078;49.366;8.172;2022-09-11T20:32:19;22.30;60.40
28297;DHT22;62078;49.366;8.172;2022-09-11T20:34:45;22.30;60.40
28297;DHT22;62078;49.366;8.172;2022-09-11T20:37:10;22.30;60.40
28297;DHT22;62078;49.366;8.172;2022-09-11T20:39:36;22.30;60.40
28297;DHT22;62078;49.366;8.172;2022-09-11T20:42:04;22.30;60.40
28297;DHT22;62078;49.366;8.172;2022-09-11T20:44:30;22.30;60.40
28297;DHT22;62078;49.366;8.172;2022-09-11T20:46:55;22.30;60.40
28297;DHT22;62078;49.366;8.172;2022-09-11T20:49:21;22.30;60.30
28297;DHT22;62078;49.366;8.172;2022-09-11T20:51:47;22.30;60.20
28297;DHT22;62078;49.366;8.172;2022-09-11T20:54:13;22.30;60.20
28297;DHT22;62078;49.366;8.172;2022-09-11T20:56:39;22.30;60.20
28297;DHT22;62078;49.366;8.172;2022-09-11T20:59:05;22.30;60.20
28297;DHT22;62078;49.366;8.172;2022-09-11T21:01:31;22.30;60.20
28297;DHT22;62078;49.366;8.172;2022-09-11T21:03:58;22.30;60.20
28297;DHT22;62078;49.366;8.172;2022-09-11T21:06:26;22.30;60.10
28297;DHT22;62078;49.366;8.172;2022-09-11T21:08:58;22.30;60.90
28297;DHT22;62078;49.366;8.172;2022-09-11T21:11:26;22.30;60.10
28297;DHT22;62078;49.366;8.172;2022-09-11T21:13:52;22.30;60.00
28297;DHT22;62078;49.366;8.172;2022-09-11T21:16:18;22.30;60.00
28297;DHT22;62078;49.366;8.172;2022-09-11T21:18:47;22.30;60.10
28297;DHT22;62078;49.366;8.172;2022-09-11T21:21:13;22.30;60.80
28297;DHT22;62078;49.366;8.172;2022-09-11T21:23:38;22.30;60.10
28297;DHT22;62078;49.366;8.172;2022-09-11T21:26:09;22.30;60.10
28297;DHT22;62078;49.366;8.172;2022-09-11T21:28:35;22.30;60.00
28297;DHT22;62078;49.366;8.172;2022-09-11T21:31:00;22.30;60.00
28297;DHT22;62078;49.366;8.172;2022-09-11T21:33:26;22.30;60.00
28297;DHT22;62078;49.366;8.172;2022-09-11T21:35:53;22.30;60.00
28297;DHT22;62078;49.366;8.172;2022-09-11T21:38:24;22.30;60.00
28297;DHT22;62078;49.366;8.172;2022-09-11T21:40:50;22.30;60.00
28297;DHT22;62078;49.366;8.172;2022-09-11T21:43:16;22.30;60.00
28297;DHT22;62078;49.366;8.172;2022-09-11T21:45:42;22.30;60.00
28297;DHT22;62078;49.366;8.172;2022-09-11T21:48:08;22.30;59.90
28297;DHT22;62078;49.366;8.172;2022-09-11T21:50:35;22.30;59.90
28297;DHT22;62078;49.366;8.172;2022-09-11T21:53:01;22.30;59.90
28297;DHT22;62078;49.366;8.172;2022-09-11T21:55:27;22.30;60.00
28297;DHT22;62078;49.366;8.172;2022-09-11T21:57:53;22.30;59.90
28297;DHT22;62078;49.366;8.172;2022-09-11T22:00:19;22.30;59.90
28297;DHT22;62078;49.366;8.172;2022-09-11T22:02:45;22.30;59.90
28297;DHT22;62078;49.366;8.172;2022-09-11T22:05:11;22.30;59.90
28297;DHT22;62078;49.366;8.172;2022-09-11T22:07:37;22.30;59.90
28297;DHT22;62078;49.366;8.172;2022-09-11T22:10:05;22.20;59.90
28297;DHT22;62078;49.366;8.172;2022-09-11T22:12:31;22.30;59.90
28297;DHT22;62078;49.366;8.172;2022-09-11T22:14:57;22.20;59.80
28297;DHT22;62078;49.366;8.172;2022-09-11T22:17:23;22.20;59.80
28297;DHT22;62078;49.366;8.172;2022-09-11T22:19:48;22.20;59.80
28297;DHT22;62078;49.366;8.172;2022-09-11T22:22:14;22.20;59.70
28297;DHT22;62078;49.366;8.172;2022-09-11T22:24:40;22.20;59.80
28297;DHT22;62078;49.366;8.172;2022-09-11T22:27:07;22.30;59.80
28297;DHT22;62078;49.366;8.172;2022-09-11T22:29:33;22.30;59.80
28297;DHT22;62078;49.366;8.172;2022-09-11T22:31:59;22.20;59.70
28297;DHT22;62078;49.366;8.172;2022-09-11T22:34:25;22.20;59.70
28297;DHT22;62078;49.366;8.172;2022-09-11T22:36:50;22.30;59.80
28297;DHT22;62078;49.366;8.172;2022-09-11T22:39:16;22.20;59.70
28297;DHT22;62078;49.366;8.172;2022-09-11T22:41:42;22.20;59.70
28297;DHT22;62078;49.366;8.172;2022-09-11T22:44:09;22.20;59.70
28297;DHT22;62078;49.366;8.172;2022-09-11T22:46:35;22.20;59.70
28297;DHT22;62078;49.366;8.172;2022-09-11T22:49:01;22.20;59.70
28297;DHT22;62078;49.366;8.172;2022-09-11T22:51:28;22.20;59.70
28297;DHT22;62078;49.366;8.172;2022-09-11T22:53:56;22.20;59.70
28297;DHT22;62078;49.366;8.172;2022-09-11T22:56:22;22.20;59.70
28297;DHT22;62078;49.366;8.172;2022-09-11T22:58:47;22.20;59.70
28297;DHT22;62078;49.366;8.172;2022-09-11T23:01:14;22.20;59.70
28297;DHT22;62078;49.366;8.172;2022-09-11T23:03:41;22.20;59.70
28297;DHT22;62078;49.366;8.172;2022-09-11T23:06:09;22.20;59.60
28297;DHT22;62078;49.366;8.172;2022-09-11T23:08:54;22.20;59.60
28297;DHT22;62078;49.366;8.172;2022-09-11T23:11:21;22.20;59.60
28297;DHT22;62078;49.366;8.172;2022-09-11T23:13:47;22.20;59.60
28297;DHT22;62078;49.366;8.172;2022-09-11T23:16:23;22.20;59.60
28297;DHT22;62078;49.366;8.172;2022-09-11T23:19:00;22.20;59.60
28297;DHT22;62078;49.366;8.172;2022-09-11T23:21:27;22.20;59.60
28297;DHT22;62078;49.366;8.172;2022-09-11T23:23:55;22.20;59.60
28297;DHT22;62078;49.366;8.172;2022-09-11T23:26:22;22.20;59.60
28297;DHT22;62078;49.366;8.172;2022-09-11T23:28:48;22.20;59.50
28297;DHT22;62078;49.366;8.172;2022-09-11T23:31:20;22.20;59.60
28297;DHT22;62078;49.366;8.172;2022-09-11T23:33:46;22.20;59.60
28297;DHT22;62078;49.366;8.172;2022-09-11T23:36:14;22.20;59.50
28297;DHT22;62078;49.366;8.172;2022-09-11T23:38:43;22.20;59.50
28297;DHT22;62078;49.366;8.172;2022-09-11T23:41:08;22.20;59.50
28297;DHT22;62078;49.366;8.172;2022-09-11T23:43:34;22.20;60.20
28297;DHT22;62078;49.366;8.172;2022-09-11T23:46:00;22.20;59.50
28297;DHT22;62078;49.366;8.172;2022-09-11T23:48:25;22.20;59.60
28297;DHT22;62078;49.366;8.172;2022-09-11T23:50:51;22.20;59.50
28297;DHT22;62078;49.366;8.172;2022-09-11T23:53:17;22.20;59.60
28297;DHT22;62078;49.366;8.172;2022-09-11T23:55:46;22.20;59.50
28297;DHT22;62078;49.366;8.172;2022-09-11T23:58:13;22.20;59.50
